createdAt,value
2022-09-18T00:01:09.533Z,4.30
2022-09-18T00:03:37.294Z,3.40
2022-09-18T00:06:08.551Z,2.90
2022-09-18T00:08:38.542Z,2.07
2022-09-18T00:11:08.315Z,2.90
2022-09-18T00:13:37.126Z,2.33
2022-09-18T00:16:05.363Z,4.17
2022-09-18T00:18:33.594Z,2.70
2022-09-18T00:21:05.517Z,3.50
2022-09-18T00:23:33.208Z,3.27
2022-09-18T00:26:02.260Z,3.97
2022-09-18T00:28:30.093Z,2.07
2022-09-18T00:31:03.904Z,3.63
2022-09-18T00:33:31.600Z,3.17
2022-09-18T00:36:01.677Z,5.60
2022-09-18T00:38:30.349Z,2.27
2022-09-18T00:40:58.177Z,2.37
2022-09-18T00:43:29.350Z,4.63
2022-09-18T00:46:00.623Z,3.90
2022-09-18T00:48:34.702Z,1.77
2022-09-18T00:51:02.636Z,1.63
2022-09-18T00:53:30.947Z,2.40
2022-09-18T00:56:01.825Z,3.60
2022-09-18T00:58:31.196Z,1.90
2022-09-18T01:01:02.332Z,3.27
2022-09-18T01:03:30.589Z,2.67
2022-09-18T01:06:12.011Z,1.73
2022-09-18T01:08:51.274Z,1.37
2022-09-18T01:11:31.928Z,1.43
2022-09-18T01:14:16.441Z,3.87
2022-09-18T01:16:50.397Z,1.33
2022-09-18T01:19:45.598Z,1.60
2022-09-18T01:22:26.587Z,0.97
2022-09-18T01:25:09.108Z,1.47
2022-09-18T01:27:48.006Z,1.60
2022-09-18T01:30:15.948Z,1.43
2022-09-18T01:32:48.953Z,2.37
2022-09-18T01:38:12.495Z,0.90
2022-09-18T01:40:45.946Z,2.40
2022-09-18T01:43:19.170Z,1.20
2022-09-18T01:45:49.652Z,1.10
2022-09-18T01:48:23.200Z,0.87
2022-09-18T01:50:55.603Z,0.80
2022-09-18T01:53:29.115Z,1.27
2022-09-18T01:56:01.244Z,1.17
2022-09-18T01:58:46.089Z,0.80
2022-09-18T02:01:17.869Z,1.00
2022-09-18T02:03:51.685Z,0.80
2022-09-18T02:06:26.411Z,0.90
2022-09-18T02:08:56.606Z,1.00
2022-09-18T02:11:25.249Z,3.07
2022-09-18T02:13:59.621Z,0.80
2022-09-18T02:16:32.900Z,2.17
2022-09-18T02:19:06.835Z,0.97
2022-09-18T02:21:35.599Z,1.77
2022-09-18T02:24:07.040Z,2.57
2022-09-18T02:26:38.694Z,1.30
2022-09-18T02:29:12.432Z,1.60
2022-09-18T02:31:41.328Z,1.77
2022-09-18T02:34:10.574Z,1.40
2022-09-18T02:36:59.919Z,3.40
2022-09-18T02:39:40.126Z,1.90
2022-09-18T02:42:21.294Z,2.27
2022-09-18T02:44:59.975Z,1.53
2022-09-18T02:47:38.768Z,3.03
2022-09-18T02:50:16.473Z,2.23
2022-09-18T02:52:52.887Z,2.20
2022-09-18T02:55:26.455Z,3.80
2022-09-18T02:58:00.155Z,2.87
2022-09-18T03:00:31.529Z,2.53
2022-09-18T03:03:00.331Z,3.53
2022-09-18T03:05:28.334Z,4.60
2022-09-18T03:07:56.080Z,5.10
2022-09-18T03:10:23.745Z,5.13
2022-09-18T03:12:51.390Z,7.37
2022-09-18T03:15:19.260Z,7.93
2022-09-18T03:17:48.399Z,11.10
2022-09-18T03:20:16.222Z,12.03
2022-09-18T03:22:43.953Z,6.60
2022-09-18T03:25:13.460Z,8.13
2022-09-18T03:27:42.668Z,6.33
2022-09-18T03:30:11.310Z,9.40
2022-09-18T03:32:39.220Z,12.10
2022-09-18T03:35:09.347Z,10.10
2022-09-18T03:37:37.287Z,8.07
2022-09-18T03:40:05.545Z,16.63
2022-09-18T03:42:33.273Z,9.43
2022-09-18T03:45:00.979Z,13.80
2022-09-18T03:47:31.800Z,13.97
2022-09-18T03:50:01.951Z,11.03
2022-09-18T03:52:31.117Z,7.53
2022-09-18T03:54:58.734Z,10.73
2022-09-18T03:57:26.508Z,13.03
2022-09-18T03:59:54.435Z,9.70
2022-09-18T04:02:22.201Z,9.87
2022-09-18T04:04:49.954Z,17.50
2022-09-18T04:07:18.227Z,11.10
2022-09-18T04:09:47.319Z,8.20
2022-09-18T04:12:15.129Z,11.93
2022-09-18T04:14:42.901Z,6.57
2022-09-18T04:17:11.146Z,13.63
2022-09-18T04:19:38.807Z,8.70
2022-09-18T04:22:06.635Z,10.93
2022-09-18T04:24:35.394Z,8.23
2022-09-18T04:27:04.807Z,11.70
2022-09-18T04:29:32.593Z,6.33
2022-09-18T04:32:00.389Z,15.73
2022-09-18T04:34:28.046Z,17.67
2022-09-18T04:36:55.711Z,15.53
2022-09-18T04:39:23.534Z,11.70
2022-09-18T04:41:51.643Z,18.53
2022-09-18T04:44:20.745Z,10.80
2022-09-18T04:46:48.478Z,10.00
2022-09-18T04:49:16.125Z,17.07
2022-09-18T04:51:43.996Z,17.70
2022-09-18T04:54:11.901Z,9.70
2022-09-18T04:56:42.635Z,8.67
2022-09-18T04:59:10.406Z,14.70
2022-09-18T05:01:39.656Z,12.93
2022-09-18T05:04:08.550Z,7.83
2022-09-18T05:06:36.360Z,11.70
2022-09-18T05:09:04.166Z,7.60
2022-09-18T05:11:31.816Z,11.03
2022-09-18T05:13:59.878Z,9.80
2022-09-18T05:16:27.575Z,3.77
2022-09-18T05:18:56.569Z,10.67
2022-09-18T05:21:25.110Z,8.93
2022-09-18T05:23:52.698Z,7.00
2022-09-18T05:26:20.391Z,13.33
2022-09-18T05:28:50.527Z,8.20
2022-09-18T05:31:18.645Z,9.00
2022-09-18T05:33:46.289Z,9.73
2022-09-18T05:36:15.430Z,5.93
2022-09-18T05:38:43.174Z,11.17
2022-09-18T05:41:10.891Z,9.53
2022-09-18T05:43:38.777Z,6.93
2022-09-18T05:46:07.051Z,6.17
2022-09-18T05:48:34.774Z,6.87
2022-09-18T05:51:02.474Z,12.20
2022-09-18T05:53:31.493Z,7.53
2022-09-18T05:56:00.751Z,6.53
2022-09-18T05:58:28.306Z,8.87
2022-09-18T06:00:58.781Z,7.40
2022-09-18T06:03:26.649Z,11.53
2022-09-18T06:05:55.833Z,7.53
2022-09-18T06:08:24.374Z,7.40
2022-09-18T06:10:54.759Z,6.80
2022-09-18T06:13:22.467Z,8.57
2022-09-18T06:15:53.348Z,6.03
2022-09-18T06:18:22.862Z,12.17
2022-09-18T06:20:53.879Z,8.43
2022-09-18T06:23:24.072Z,7.80
2022-09-18T06:25:59.758Z,7.37
2022-09-18T06:28:27.644Z,12.27
2022-09-18T06:30:55.356Z,6.47
2022-09-18T06:33:23.140Z,14.77
2022-09-18T06:35:50.802Z,11.70
2022-09-18T06:38:18.927Z,7.80
2022-09-18T06:40:50.655Z,12.93
2022-09-18T06:43:20.473Z,11.70
2022-09-18T06:45:53.534Z,10.47
2022-09-18T06:48:21.706Z,10.20
2022-09-18T06:50:53.449Z,6.07
2022-09-18T06:53:22.108Z,7.93
2022-09-18T06:55:50.371Z,12.37
2022-09-18T06:58:20.722Z,7.87
2022-09-18T07:00:48.777Z,5.93
2022-09-18T07:03:16.595Z,12.43
2022-09-18T07:05:46.065Z,11.27
2022-09-18T07:08:14.068Z,6.93
2022-09-18T07:10:43.168Z,8.80
2022-09-18T07:13:10.889Z,8.30
2022-09-18T07:15:40.016Z,7.87
2022-09-18T07:18:08.054Z,7.50
2022-09-18T07:20:36.088Z,8.03
2022-09-18T07:23:04.300Z,4.70
2022-09-18T07:25:34.600Z,9.90
2022-09-18T07:28:07.908Z,12.00
2022-09-18T07:30:36.104Z,12.60
2022-09-18T07:33:06.851Z,6.97
2022-09-18T07:35:35.254Z,5.97
2022-09-18T07:38:05.899Z,11.10
2022-09-18T07:40:34.401Z,9.07
2022-09-18T07:43:02.942Z,8.97
2022-09-18T07:45:30.982Z,3.70
2022-09-18T07:48:01.633Z,7.47
2022-09-18T07:50:30.910Z,6.77
2022-09-18T07:53:02.098Z,7.00
2022-09-18T07:55:29.891Z,7.60
2022-09-18T07:57:59.291Z,8.13
2022-09-18T08:00:28.639Z,6.93
2022-09-18T08:03:02.402Z,8.13
2022-09-18T08:05:31.948Z,4.73
2022-09-18T08:08:04.296Z,5.57
2022-09-18T08:10:32.695Z,10.93
2022-09-18T08:13:00.562Z,9.87
2022-09-18T08:15:28.455Z,8.80
2022-09-18T08:17:56.332Z,4.87
2022-09-18T08:20:24.164Z,11.10
2022-09-18T08:22:53.275Z,8.50
2022-09-18T08:25:21.824Z,7.73
2022-09-18T08:27:49.749Z,6.83
2022-09-18T08:30:18.111Z,6.23
2022-09-18T08:32:45.985Z,6.90
2022-09-18T08:35:13.842Z,10.37
2022-09-18T08:37:48.766Z,6.43
2022-09-18T08:40:22.119Z,9.80
2022-09-18T08:43:05.569Z,6.37
2022-09-18T08:45:43.821Z,8.47
2022-09-18T08:48:16.662Z,11.00
2022-09-18T08:50:56.014Z,7.90
2022-09-18T08:53:28.939Z,9.27
2022-09-18T08:56:01.308Z,5.80
2022-09-18T08:58:34.715Z,7.87
2022-09-18T09:01:08.164Z,6.37
2022-09-18T09:03:50.792Z,10.50
2022-09-18T09:06:31.835Z,5.00
2022-09-18T09:09:21.625Z,9.17
2022-09-18T09:11:59.742Z,9.40
2022-09-18T09:14:57.130Z,6.00
2022-09-18T09:17:39.839Z,6.00
2022-09-18T09:20:21.403Z,6.47
2022-09-18T09:22:57.456Z,5.80
2022-09-18T09:25:32.184Z,5.63
2022-09-18T09:28:15.762Z,3.37
2022-09-18T09:30:47.686Z,6.13
2022-09-18T09:33:22.411Z,5.13
2022-09-18T09:35:53.859Z,3.50
2022-09-18T09:38:41.930Z,5.53
2022-09-18T09:41:20.506Z,5.97
2022-09-18T09:43:56.370Z,6.23
2022-09-18T09:46:41.141Z,7.13
2022-09-18T09:49:13.833Z,6.47
2022-09-18T09:51:50.423Z,5.07
2022-09-18T09:54:18.496Z,4.60
2022-09-18T09:56:52.649Z,3.50
2022-09-18T09:59:31.845Z,4.83
2022-09-18T10:02:09.516Z,4.83
2022-09-18T10:04:44.133Z,5.50
2022-09-18T10:07:20.277Z,5.30
2022-09-18T10:09:54.362Z,3.87
2022-09-18T10:12:32.563Z,6.80
2022-09-18T10:15:07.879Z,7.90
2022-09-18T10:17:41.413Z,3.53
2022-09-18T10:20:17.591Z,5.70
2022-09-18T10:22:47.862Z,6.63
2022-09-18T10:25:22.678Z,5.63
2022-09-18T10:27:53.795Z,5.80
2022-09-18T10:30:23.198Z,3.43
2022-09-18T10:32:50.932Z,5.43
2022-09-18T10:35:42.470Z,6.13
2022-09-18T10:38:30.166Z,4.23
2022-09-18T10:41:11.169Z,6.00
2022-09-18T10:43:41.051Z,4.70
2022-09-18T10:46:10.759Z,6.70
2022-09-18T10:48:44.583Z,6.13
2022-09-18T10:51:20.537Z,5.80
2022-09-18T10:54:04.587Z,6.13
2022-09-18T10:56:33.370Z,4.73
2022-09-18T10:59:15.835Z,4.73
2022-09-18T11:01:45.160Z,6.63
2022-09-18T11:04:18.051Z,6.63
2022-09-18T11:06:47.678Z,6.20
2022-09-18T11:09:21.103Z,3.10
2022-09-18T11:11:53.141Z,4.40
2022-09-18T11:14:27.554Z,6.40
2022-09-18T11:17:00.524Z,2.80
2022-09-18T11:19:31.026Z,7.70
2022-09-18T11:22:03.069Z,4.47
2022-09-18T11:24:33.562Z,5.60
2022-09-18T11:27:03.136Z,6.37
2022-09-18T11:29:39.232Z,3.20
2022-09-18T11:32:17.166Z,8.90
2022-09-18T11:34:48.280Z,5.83
2022-09-18T11:37:27.373Z,2.80
2022-09-18T11:39:59.812Z,4.43
2022-09-18T11:42:29.231Z,4.87
2022-09-18T11:45:10.605Z,4.70
2022-09-18T11:47:47.312Z,6.53
2022-09-18T11:50:20.075Z,5.40
2022-09-18T11:52:54.080Z,5.50
2022-09-18T11:55:29.622Z,5.80
2022-09-18T11:58:02.659Z,9.43
2022-09-18T12:00:36.421Z,2.37
2022-09-18T12:03:16.885Z,3.80
2022-09-18T12:05:53.105Z,6.47
2022-09-18T12:08:26.629Z,10.60
2022-09-18T12:11:08.162Z,7.20
2022-09-18T12:13:50.452Z,4.63
2022-09-18T12:16:23.882Z,6.43
2022-09-18T12:19:01.291Z,7.30
2022-09-18T12:21:39.626Z,3.43
2022-09-18T12:24:14.067Z,3.30
2022-09-18T12:26:50.785Z,3.03
2022-09-18T12:29:31.404Z,4.27
2022-09-18T12:32:07.206Z,9.87
2022-09-18T12:34:44.857Z,4.43
2022-09-18T12:37:25.605Z,2.03
2022-09-18T12:40:30.869Z,2.93
2022-09-18T12:43:13.441Z,3.27
2022-09-18T12:45:58.238Z,3.43
2022-09-18T12:48:48.588Z,1.40
2022-09-18T12:51:35.710Z,4.53
2022-09-18T12:54:18.457Z,2.70
2022-09-18T12:56:59.517Z,3.60
2022-09-18T12:59:48.458Z,4.77
2022-09-18T13:02:27.131Z,3.17
2022-09-18T13:05:01.638Z,3.67
2022-09-18T13:07:35.482Z,4.57
2022-09-18T13:10:11.596Z,6.93
2022-09-18T13:12:42.992Z,5.23
2022-09-18T13:15:19.159Z,6.53
2022-09-18T13:17:52.047Z,3.43
2022-09-18T13:20:25.719Z,4.20
2022-09-18T13:23:01.583Z,3.77
2022-09-18T13:25:36.418Z,7.23
2022-09-18T13:28:19.345Z,4.00
2022-09-18T13:30:49.283Z,4.43
2022-09-18T13:33:25.376Z,3.40
2022-09-18T13:35:56.868Z,5.63
2022-09-18T13:38:28.654Z,5.20
2022-09-18T13:41:02.930Z,4.20
2022-09-18T13:43:39.891Z,2.47
2022-09-18T13:46:10.926Z,2.00
2022-09-18T13:48:45.480Z,2.80
2022-09-18T13:51:21.998Z,1.90
2022-09-18T13:54:17.807Z,1.83
2022-09-18T13:57:25.422Z,1.77
2022-09-18T13:59:56.350Z,2.47
2022-09-18T14:02:35.700Z,2.67
2022-09-18T14:05:26.585Z,1.90
2022-09-18T14:08:13.764Z,3.13
2022-09-18T14:11:16.735Z,1.00
2022-09-18T14:13:51.722Z,4.20
2022-09-18T14:16:33.406Z,3.03
2022-09-18T14:19:05.564Z,3.33
2022-09-18T14:21:40.259Z,3.57
2022-09-18T14:24:55.191Z,3.07
2022-09-18T14:27:43.849Z,5.67
2022-09-18T14:30:21.379Z,3.00
2022-09-18T14:33:03.663Z,2.10
2022-09-18T14:35:42.977Z,1.33
2022-09-18T14:38:19.086Z,3.50
2022-09-18T14:40:54.576Z,2.63
2022-09-18T14:43:24.914Z,3.07
2022-09-18T14:45:54.724Z,3.80
2022-09-18T14:48:28.337Z,3.43
2022-09-18T14:51:06.354Z,1.77
2022-09-18T14:53:42.709Z,1.70
2022-09-18T14:56:13.974Z,4.57
2022-09-18T14:58:46.561Z,2.27
2022-09-18T15:01:17.736Z,4.37
2022-09-18T15:03:48.443Z,2.53
2022-09-18T15:06:21.110Z,3.50
2022-09-18T15:08:51.395Z,3.87
2022-09-18T15:11:23.117Z,2.87
2022-09-18T15:13:53.932Z,2.20
2022-09-18T15:16:27.211Z,2.17
2022-09-18T15:18:56.045Z,6.53
2022-09-18T15:21:31.007Z,4.63
2022-09-18T15:24:03.235Z,2.37
2022-09-18T15:26:34.102Z,2.33
2022-09-18T15:29:05.124Z,7.57
2022-09-18T15:31:34.318Z,5.50
2022-09-18T15:34:06.932Z,1.20
2022-09-18T15:36:36.691Z,4.67
2022-09-18T15:39:06.922Z,2.97
2022-09-18T15:41:41.404Z,3.50
2022-09-18T15:45:00.358Z,2.43
2022-09-18T15:47:34.869Z,2.37
2022-09-18T15:50:22.347Z,3.80
2022-09-18T15:53:02.995Z,4.03
2022-09-18T15:55:33.266Z,3.40
2022-09-18T15:58:03.855Z,4.03
2022-09-18T16:00:35.716Z,4.23
2022-09-18T16:03:07.256Z,2.23
2022-09-18T16:05:38.023Z,3.50
2022-09-18T16:08:17.764Z,1.80
2022-09-18T16:10:48.921Z,3.30
2022-09-18T16:13:33.510Z,2.53
2022-09-18T16:16:24.429Z,3.77
2022-09-18T16:18:56.140Z,1.70
2022-09-18T16:21:26.917Z,5.10
2022-09-18T16:23:59.121Z,2.60
2022-09-18T16:26:31.120Z,3.00
2022-09-18T16:29:01.170Z,2.67
2022-09-18T16:31:33.026Z,3.57
2022-09-18T16:34:03.208Z,2.97
2022-09-18T16:36:34.246Z,2.17
2022-09-18T16:39:04.344Z,7.60
2022-09-18T16:41:33.691Z,3.13
2022-09-18T16:44:02.083Z,3.33
2022-09-18T16:46:35.890Z,6.13
2022-09-18T16:49:04.229Z,3.57
2022-09-18T16:51:32.117Z,5.20
2022-09-18T16:53:59.880Z,1.93
2022-09-18T16:56:30.452Z,4.37
2022-09-18T16:59:00.224Z,3.17
2022-09-18T17:01:36.240Z,2.57
2022-09-18T17:04:17.671Z,8.17
2022-09-18T17:06:45.955Z,1.60
2022-09-18T17:09:13.753Z,2.73
2022-09-18T17:11:41.770Z,4.40
2022-09-18T17:14:09.718Z,3.80
2022-09-18T17:16:44.668Z,2.57
2022-09-18T17:19:13.674Z,5.97
2022-09-18T17:21:43.445Z,4.03
2022-09-18T17:24:11.720Z,4.07
2022-09-18T17:26:41.529Z,3.60
2022-09-18T17:29:11.277Z,3.93
2022-09-18T17:31:39.543Z,5.33
2022-09-18T17:34:07.658Z,3.50
2022-09-18T17:36:36.872Z,4.43
2022-09-18T17:39:06.317Z,2.37
2022-09-18T17:41:34.881Z,4.70
2022-09-18T17:44:03.610Z,5.60
2022-09-18T17:46:31.904Z,7.07
2022-09-18T17:49:01.111Z,9.07
2022-09-18T17:51:29.813Z,4.57
2022-09-18T17:53:59.097Z,2.63
2022-09-18T17:56:29.955Z,3.20
2022-09-18T17:58:59.888Z,2.70
2022-09-18T18:01:28.916Z,2.60
2022-09-18T18:03:57.280Z,8.57
2022-09-18T18:06:25.707Z,6.43
2022-09-18T18:08:53.946Z,6.50
2022-09-18T18:11:25.165Z,6.03
2022-09-18T18:13:56.462Z,4.43
2022-09-18T18:16:27.420Z,8.40
2022-09-18T18:18:56.815Z,5.37
2022-09-18T18:21:25.703Z,3.17
2022-09-18T18:23:56.813Z,3.80
2022-09-18T18:26:24.684Z,5.13
2022-09-18T18:28:55.625Z,3.87
2022-09-18T18:31:25.643Z,3.33
2022-09-18T18:33:55.026Z,3.43
2022-09-18T18:36:25.013Z,2.27
2022-09-18T18:38:54.184Z,2.33
2022-09-18T18:41:24.905Z,7.07
2022-09-18T18:43:55.475Z,3.03
2022-09-18T18:46:25.048Z,5.80
2022-09-18T18:48:59.976Z,6.17
2022-09-18T18:51:29.094Z,4.63
2022-09-18T18:53:57.658Z,4.47
2022-09-18T18:56:25.479Z,4.53
2022-09-18T18:58:58.713Z,5.70
2022-09-18T19:01:26.977Z,2.97
2022-09-18T19:03:56.893Z,4.70
2022-09-18T19:06:26.442Z,3.83
2022-09-18T19:08:58.406Z,4.00
2022-09-18T19:11:26.695Z,2.97
2022-09-18T19:13:57.413Z,4.37
2022-09-18T19:16:26.827Z,5.00
2022-09-18T19:18:58.751Z,5.33
2022-09-18T19:21:27.830Z,5.27
2022-09-18T19:23:59.249Z,3.90
2022-09-18T19:26:28.777Z,4.40
2022-09-18T19:29:00.242Z,5.63
2022-09-18T19:31:29.385Z,4.47
2022-09-18T19:33:58.002Z,5.20
2022-09-18T19:36:28.325Z,5.00
2022-09-18T19:38:57.504Z,5.80
2022-09-18T19:41:33.461Z,6.97
2022-09-18T19:44:05.149Z,7.20
2022-09-18T19:46:33.609Z,8.13
2022-09-18T19:49:01.504Z,5.23
2022-09-18T19:51:30.198Z,5.63
2022-09-18T19:53:57.973Z,7.00
2022-09-18T19:56:42.173Z,6.73
2022-09-18T19:59:11.844Z,4.23
2022-09-18T20:01:39.633Z,4.57
2022-09-18T20:04:07.298Z,5.57
2022-09-18T20:06:36.849Z,4.80
2022-09-18T20:09:04.847Z,4.37
2022-09-18T20:11:32.811Z,2.67
2022-09-18T20:14:00.579Z,4.37
2022-09-18T20:16:29.911Z,5.97
2022-09-18T20:18:57.651Z,4.37
2022-09-18T20:21:25.544Z,5.17
2022-09-18T20:23:56.986Z,5.53
2022-09-18T20:26:25.368Z,4.00
2022-09-18T20:28:53.378Z,2.43
2022-09-18T20:31:23.793Z,3.67
2022-09-18T20:33:56.478Z,4.23
2022-09-18T20:36:25.701Z,3.27
2022-09-18T20:39:03.540Z,5.57
2022-09-18T20:41:31.571Z,2.43
2022-09-18T20:44:04.813Z,5.47
2022-09-18T20:46:37.155Z,3.87
2022-09-18T20:49:07.835Z,2.60
2022-09-18T20:51:36.237Z,4.10
2022-09-18T20:54:06.908Z,5.47
2022-09-18T20:56:38.035Z,5.37
2022-09-18T20:59:06.591Z,2.77
2022-09-18T21:01:37.847Z,5.97
2022-09-18T21:04:08.895Z,2.37
2022-09-18T21:06:37.281Z,12.40
2022-09-18T21:09:09.836Z,12.93
2022-09-18T21:11:40.832Z,3.00
2022-09-18T21:14:10.725Z,2.67
2022-09-18T21:16:43.004Z,6.87
2022-09-18T21:19:14.174Z,6.50
2022-09-18T21:21:41.959Z,3.37
2022-09-18T21:24:10.085Z,5.77
2022-09-18T21:26:39.469Z,3.53
2022-09-18T21:29:11.049Z,2.97
2022-09-18T21:31:42.227Z,2.97
2022-09-18T21:34:13.075Z,3.50
2022-09-18T21:36:43.363Z,6.07
2022-09-18T21:39:12.226Z,4.23
2022-09-18T21:41:42.054Z,4.93
2022-09-18T21:44:11.880Z,6.03
2022-09-18T21:46:40.241Z,5.60
2022-09-18T21:49:09.378Z,3.33
2022-09-18T21:51:41.247Z,3.00
2022-09-18T21:54:14.476Z,5.03
2022-09-18T21:56:44.985Z,8.93
2022-09-18T21:59:13.759Z,10.33
2022-09-18T22:01:42.873Z,5.57
2022-09-18T22:04:11.303Z,4.97
2022-09-18T22:06:42.973Z,3.83
2022-09-18T22:09:13.012Z,4.53
2022-09-18T22:11:41.679Z,5.47
2022-09-18T22:14:12.419Z,5.10
2022-09-18T22:16:41.107Z,5.67
2022-09-18T22:19:09.199Z,6.67
2022-09-18T22:21:39.145Z,7.50
2022-09-18T22:24:10.067Z,6.07
2022-09-18T22:26:39.372Z,6.20
2022-09-18T22:29:08.618Z,3.57
2022-09-18T22:31:37.562Z,7.30
2022-09-18T22:34:06.192Z,2.30
2022-09-18T22:36:34.777Z,3.87
2022-09-18T22:39:02.572Z,5.77
2022-09-18T22:41:31.645Z,5.13
2022-09-18T22:43:59.441Z,4.13
2022-09-18T22:46:27.362Z,3.00
2022-09-18T22:48:55.552Z,3.73
2022-09-18T22:51:27.238Z,4.67
2022-09-18T22:53:56.294Z,5.17
2022-09-18T22:56:25.436Z,4.00
2022-09-18T22:58:55.158Z,6.43
2022-09-18T23:01:24.944Z,4.77
2022-09-18T23:03:56.686Z,6.63
2022-09-18T23:06:25.799Z,4.90
2022-09-18T23:08:54.026Z,5.30
2022-09-18T23:11:24.012Z,6.17
2022-09-18T23:13:54.841Z,5.53
2022-09-18T23:16:24.308Z,5.97
2022-09-18T23:18:54.280Z,5.17
2022-09-18T23:21:23.846Z,4.93
2022-09-18T23:23:51.509Z,5.77
2022-09-18T23:26:23.220Z,6.07
2022-09-18T23:28:52.559Z,7.37
2022-09-18T23:31:24.701Z,4.53
2022-09-18T23:33:54.486Z,4.40
2022-09-18T23:36:23.998Z,2.70
2022-09-18T23:38:54.921Z,3.80
2022-09-18T23:41:23.412Z,3.70
2022-09-18T23:43:53.501Z,7.70
2022-09-18T23:46:24.162Z,4.90
2022-09-18T23:48:55.725Z,4.67
2022-09-18T23:51:24.614Z,4.30
2022-09-18T23:53:53.215Z,5.33
2022-09-18T23:56:23.555Z,4.60
2022-09-18T23:58:55.269Z,6.30
